Time;durP1;ratioP1;P1;durP2;ratioP2;P2;SDS_P1;SDS_P2;PMS_P1;PMS_P2;Temp;Humidity;BMP_temperature;BMP_pressure;BME280_temperature;BME280_humidity;BME280_pressure;Samples;Min_cycle;Max_cycle;Signal;HPM_P1;HPM_P2
2021/11/06 00:00:40;;;;;;;23.13;12.43;;;;;;;7.26;100.00;98950.28;4914936;29;20032;-78
2021/11/06 00:03:06;;;;;;;23.83;13.45;;;;;;;7.28;100.00;98947.31;4917510;29;20096;-78
2021/11/06 00:05:33;;;;;;;22.00;16.10;;;;;;;7.25;100.00;98951.34;4917461;29;20474;-78
2021/11/06 00:07:58;;;;;;;26.27;18.10;;;;;;;7.23;100.00;98950.78;4916233;29;20485;-77
2021/11/06 00:10:23;;;;;;;32.65;23.48;;;;;;;7.18;100.00;98956.13;4916014;29;20055;-77
2021/11/06 00:12:49;;;;;;;29.27;21.17;;;;;;;7.14;100.00;98956.91;4917577;29;20032;-78
2021/11/06 00:15:15;;;;;;;32.13;21.63;;;;;;;7.17;100.00;98954.50;4917319;29;20036;-78
2021/11/06 00:17:41;;;;;;;27.35;19.35;;;;;;;7.26;100.00;98958.47;4917548;29;20024;-77
2021/11/06 00:20:08;;;;;;;24.15;16.05;;;;;;;7.18;100.00;98958.84;4916929;29;20400;-79
2021/11/06 00:22:34;;;;;;;22.23;15.38;;;;;;;7.09;100.00;98954.09;4917283;29;20028;-78
2021/11/06 00:25:01;;;;;;;22.92;15.13;;;;;;;7.17;100.00;98951.78;4917241;29;20032;-78
2021/11/06 00:27:27;;;;;;;24.75;15.63;;;;;;;7.15;100.00;98961.25;4915869;29;20474;-78
2021/11/06 00:29:52;;;;;;;21.63;13.18;;;;;;;7.17;100.00;98954.50;4917096;29;20047;-77
2021/11/06 00:32:18;;;;;;;19.92;13.10;;;;;;;7.18;100.00;98955.31;4916884;29;20052;-78
2021/11/06 00:34:44;;;;;;;20.63;13.00;;;;;;;7.23;100.00;98950.78;4915798;29;20058;-78
2021/11/06 00:37:09;;;;;;;21.73;13.65;;;;;;;7.19;100.00;98952.34;4916888;29;20036;-78
2021/11/06 00:39:34;;;;;;;19.05;12.80;;;;;;;7.21;100.00;98954.81;4917369;29;20375;-78
2021/11/06 00:42:00;;;;;;;19.35;13.45;;;;;;;7.21;100.00;98957.53;4917509;29;20036;-78
2021/11/06 00:44:25;;;;;;;23.02;13.05;;;;;;;7.25;100.00;98958.69;4916962;29;20035;-78
2021/11/06 00:46:51;;;;;;;23.10;12.80;;;;;;;7.27;100.00;98957.38;4916977;29;20122;-78
2021/11/06 00:49:16;;;;;;;19.08;12.93;;;;;;;7.30;100.00;98961.50;4918865;29;20040;-78
2021/11/06 00:51:42;;;;;;;24.92;13.38;;;;;;;7.25;100.00;98964.97;4917634;29;20079;-78
2021/11/06 00:54:07;;;;;;;21.08;12.35;;;;;;;7.27;100.00;98962.81;4916797;29;20124;-78
2021/11/06 00:56:33;;;;;;;20.98;13.52;;;;;;;7.20;100.00;98958.63;4916948;29;20032;-78
2021/11/06 00:58:58;;;;;;;22.63;13.45;;;;;;;7.14;100.00;98957.69;4916795;29;20054;-78
2021/11/06 01:01:24;;;;;;;32.25;13.25;;;;;;;7.20;100.00;98950.47;4915329;29;20059;-77
2021/11/06 01:03:49;;;;;;;21.83;12.80;;;;;;;7.23;100.00;98961.69;4916405;29;20029;-78
2021/11/06 01:06:14;;;;;;;20.67;12.20;;;;;;;7.29;100.00;98951.69;4916508;29;20393;-77
2021/11/06 01:08:40;;;;;;;23.17;12.00;;;;;;;7.29;100.00;98952.50;4915981;29;20056;-78
2021/11/06 01:11:06;;;;;;;26.65;12.90;;;;;;;7.25;100.00;98959.53;4916309;29;20028;-78
2021/11/06 01:13:32;;;;;;;26.85;12.88;;;;;;;7.27;100.00;98965.53;4915577;29;20410;-78
2021/11/06 01:15:58;;;;;;;25.92;13.40;;;;;;;7.23;100.00;98956.22;4916311;29;20492;-77
2021/11/06 01:18:23;;;;;;;22.50;12.52;;;;;;;7.31;100.00;98958.53;4916233;29;20032;-77
2021/11/06 01:20:49;;;;;;;24.08;13.38;;;;;;;7.31;100.00;98963.13;4916099;29;20028;-77
2021/11/06 01:23:15;;;;;;;21.65;11.18;;;;;;;7.29;100.00;98966.13;4916034;29;20034;-77
2021/11/06 01:25:40;;;;;;;19.90;11.13;;;;;;;7.33;100.00;98969.97;4916104;29;20032;-77
2021/11/06 01:28:06;;;;;;;22.50;11.13;;;;;;;7.41;100.00;98966.00;4916098;29;20058;-77
2021/11/06 01:30:31;;;;;;;17.25;11.10;;;;;;;7.38;100.00;98970.06;4917024;29;20035;-77
2021/11/06 01:32:57;;;;;;;17.48;11.13;;;;;;;7.36;100.00;98977.63;4915859;29;20458;-77
2021/11/06 01:35:22;;;;;;;22.48;11.73;;;;;;;7.38;100.00;98972.78;4915847;29;20021;-76
2021/11/06 01:37:48;;;;;;;22.67;12.10;;;;;;;7.37;100.00;98973.84;4916142;29;20028;-76
2021/11/06 01:40:17;;;;;;;23.25;11.43;;;;;;;7.28;100.00;98967.19;4916334;29;20043;-77
2021/11/06 01:42:44;;;;;;;28.90;12.55;;;;;;;7.31;100.00;98972.13;4915077;29;20087;-77
2021/11/06 01:45:14;;;;;;;24.38;12.63;;;;;;;7.34;100.00;98966.19;4914336;29;20024;-76
2021/11/06 01:47:40;;;;;;;25.15;12.90;;;;;;;7.38;100.00;98963.78;4915368;29;20131;-76
2021/11/06 01:50:06;;;;;;;26.15;13.00;;;;;;;7.35;100.00;98967.84;4915658;29;20032;-77
2021/11/06 01:52:32;;;;;;;27.63;13.57;;;;;;;7.32;100.00;98968.34;4915452;29;20790;-76
2021/11/06 01:54:57;;;;;;;24.65;13.90;;;;;;;7.31;100.00;98963.97;4915365;29;20039;-77
2021/11/06 01:57:23;;;;;;;28.08;13.55;;;;;;;7.41;100.00;98969.56;4915313;29;20039;-77
2021/11/06 01:59:49;;;;;;;24.90;12.70;;;;;;;7.39;100.00;98966.25;4914014;29;20421;-77
2021/11/06 02:02:15;;;;;;;27.80;11.70;;;;;;;7.41;100.00;98977.72;4915395;29;20031;-77
2021/11/06 02:04:41;;;;;;;24.00;12.40;;;;;;;7.40;100.00;98962.47;4915392;29;20033;-77
2021/11/06 02:07:07;;;;;;;25.90;12.90;;;;;;;7.35;100.00;98970.56;4915562;29;20035;-77
2021/11/06 02:09:33;;;;;;;24.67;12.90;;;;;;;7.41;100.00;98969.56;4913778;29;20139;-77
2021/11/06 02:11:58;;;;;;;24.33;13.45;;;;;;;7.51;100.00;98974.34;4915765;29;20118;-77
2021/11/06 02:14:24;;;;;;;23.42;12.02;;;;;;;7.41;100.00;98968.72;4915560;29;20438;-77
2021/11/06 02:16:52;;;;;;;27.25;12.98;;;;;;;7.40;100.00;98978.78;4915766;29;20032;-77
2021/11/06 02:19:18;;;;;;;29.08;14.35;;;;;;;7.47;100.00;98973.19;4923728;29;20040;-78
2021/11/06 02:21:46;;;;;;;26.20;13.65;;;;;;;7.43;100.00;98972.03;4926976;29;20125;-77
2021/11/06 02:24:12;;;;;;;24.73;12.73;;;;;;;7.33;100.00;98966.44;4915319;29;20024;-77
2021/11/06 02:26:37;;;;;;;27.05;12.75;;;;;;;7.36;100.00;98983.06;4915495;29;20052;-77
2021/11/06 02:29:03;;;;;;;20.45;12.00;;;;;;;7.37;100.00;98976.56;4915439;29;20064;-78
2021/11/06 02:31:29;;;;;;;20.00;12.00;;;;;;;7.29;100.00;98981.63;4915802;29;20123;-79
2021/11/06 02:33:55;;;;;;;21.50;11.32;;;;;;;7.34;100.00;98979.78;4915750;29;20107;-77
2021/11/06 02:36:21;;;;;;;17.95;10.88;;;;;;;7.25;100.00;98981.28;4915267;29;20544;-78
2021/11/06 02:38:47;;;;;;;19.98;11.10;;;;;;;7.28;100.00;98969.06;4915724;29;20028;-78
2021/11/06 02:41:12;;;;;;;18.63;11.07;;;;;;;7.34;100.00;98977.06;4914656;29;20039;-77
2021/11/06 02:43:38;;;;;;;20.42;10.65;;;;;;;7.31;100.00;98983.00;4915199;29;20401;-77
2021/11/06 02:46:04;;;;;;;24.15;11.80;;;;;;;7.33;100.00;98991.75;4914785;29;20024;-77
2021/11/06 02:48:30;;;;;;;18.38;10.90;;;;;;;7.30;100.00;98989.50;4914681;29;20508;-77
2021/11/06 02:50:55;;;;;;;22.35;11.98;;;;;;;7.34;100.00;98989.84;4914676;29;20032;-77
2021/11/06 02:53:21;;;;;;;27.88;12.50;;;;;;;7.38;100.00;99002.72;4913271;29;20031;-77
2021/11/06 02:55:48;;;;;;;20.33;13.27;;;;;;;7.35;100.00;98989.63;4914897;29;20127;-78
2021/11/06 02:58:13;;;;;;;21.98;13.32;;;;;;;7.45;100.00;99000.66;4913296;29;20041;-77
2021/11/06 03:00:40;;;;;;;25.27;11.57;;;;;;;7.39;100.00;99001.63;4913371;29;20477;-77
2021/11/06 03:03:05;;;;;;;19.02;11.73;;;;;;;7.39;100.00;99004.34;4914700;29;20035;-77
2021/11/06 03:05:30;;;;;;;17.63;10.85;;;;;;;7.38;100.00;99004.63;4913222;29;20024;-77
2021/11/06 03:07:57;;;;;;;17.45;10.75;;;;;;;7.40;100.00;99016.06;4914398;29;20040;-77
2021/11/06 03:10:22;;;;;;;19.40;11.40;;;;;;;7.34;100.00;99009.72;4914526;29;20036;-77
2021/11/06 03:12:49;;;;;;;19.75;12.30;;;;;;;7.36;100.00;99002.13;4914801;29;20478;-77
2021/11/06 03:15:15;;;;;;;19.63;10.68;;;;;;;7.31;100.00;99012.13;4914317;29;20032;-77
2021/11/06 03:17:41;;;;;;;18.73;11.30;;;;;;;7.22;100.00;99016.31;4931201;29;20034;-77
2021/11/06 03:20:09;;;;;;;18.40;11.13;;;;;;;7.14;100.00;99016.75;4932887;29;20094;-77
2021/11/06 03:22:34;;;;;;;18.48;11.10;;;;;;;7.14;100.00;99011.31;4932754;29;20106;-77
2021/11/06 03:25:02;;;;;;;22.23;10.93;;;;;;;7.04;100.00;98995.66;4931383;29;20084;-77
2021/11/06 03:27:28;;;;;;;19.98;11.70;;;;;;;7.10;100.00;99021.03;4920508;29;20043;-77
2021/11/06 03:29:54;;;;;;;21.25;10.68;;;;;;;7.11;100.00;99018.03;4931348;29;20028;-77
2021/11/06 03:32:20;;;;;;;17.90;11.43;;;;;;;7.10;100.00;99016.41;4921737;29;20370;-77
2021/11/06 03:34:45;;;;;;;22.35;11.02;;;;;;;7.09;100.00;99009.31;4914113;29;20039;-78
2021/11/06 03:37:11;;;;;;;16.10;11.02;;;;;;;7.14;100.00;99012.09;4917295;29;20524;-77
2021/11/06 03:39:36;;;;;;;23.65;11.57;;;;;;;7.11;100.00;99009.88;4916307;29;20031;-78
2021/11/06 03:42:04;;;;;;;19.00;10.88;;;;;;;7.19;100.00;99004.03;4918188;29;20486;-78
2021/11/06 03:44:29;;;;;;;19.33;12.05;;;;;;;7.27;100.00;99019.94;4928291;29;20038;-77
2021/11/06 03:46:55;;;;;;;21.58;11.52;;;;;;;7.29;100.00;99020.53;4936439;29;20389;-77
2021/11/06 03:49:20;;;;;;;23.33;12.02;;;;;;;7.28;100.00;99018.88;4936739;29;20055;-77
2021/11/06 03:51:46;;;;;;;19.40;10.32;;;;;;;7.29;100.00;99019.72;4937211;29;20441;-77
2021/11/06 03:54:12;;;;;;;24.92;10.80;;;;;;;7.21;100.00;99022.81;4936051;29;20019;-77
2021/11/06 03:56:38;;;;;;;16.20;10.25;;;;;;;7.18;100.00;99017.88;4936929;29;20119;-77
2021/11/06 03:59:03;;;;;;;16.27;10.10;;;;;;;7.18;100.00;99024.16;4936292;29;20032;-77
2021/11/06 04:01:31;;;;;;;19.00;9.93;;;;;;;7.26;100.00;99025.66;4934969;29;20111;-77
2021/11/06 04:03:57;;;;;;;17.70;10.30;;;;;;;7.26;100.00;99034.66;4936497;29;20024;-77
2021/11/06 04:06:23;;;;;;;16.00;9.85;;;;;;;7.19;100.00;99028.53;4935979;29;20045;-77
2021/11/06 04:08:49;;;;;;;16.52;9.63;;;;;;;7.15;100.00;99035.53;4935714;29;20892;-77
2021/11/06 04:11:15;;;;;;;18.60;9.85;;;;;;;7.17;100.00;99038.03;4936067;29;20028;-77
2021/11/06 04:13:40;;;;;;;13.95;9.35;;;;;;;7.24;100.00;99039.50;4933370;29;20100;-77
2021/11/06 04:16:06;;;;;;;16.27;9.18;;;;;;;7.14;100.00;99033.88;4935930;29;20453;-77
2021/11/06 04:18:31;;;;;;;19.85;9.18;;;;;;;7.17;100.00;99043.47;4935853;29;20020;-77
2021/11/06 04:20:57;;;;;;;19.48;10.07;;;;;;;7.15;100.00;99045.59;4926805;29;20036;-77
2021/11/06 04:23:22;;;;;;;16.55;9.50;;;;;;;7.07;100.00;99033.22;4916691;29;20223;-76
2021/11/06 04:25:48;;;;;;;14.00;8.40;;;;;;;7.12;100.00;99041.47;4915569;29;20028;-77
2021/11/06 04:28:14;;;;;;;17.30;9.38;;;;;;;7.11;100.00;99041.72;4916786;29;20079;-77
2021/11/06 04:30:40;;;;;;;15.60;8.98;;;;;;;7.09;100.00;99036.53;4916615;29;20036;-77
2021/11/06 04:33:06;;;;;;;13.45;8.25;;;;;;;7.06;100.00;99031.56;4916546;29;20028;-77
2021/11/06 04:35:31;;;;;;;13.77;9.20;;;;;;;7.09;100.00;99055.56;4916329;29;20036;-77
2021/11/06 04:37:57;;;;;;;15.65;9.60;;;;;;;7.11;100.00;99050.69;4915270;29;20490;-77
2021/11/06 04:40:22;;;;;;;13.70;8.88;;;;;;;7.13;100.00;99039.56;4915096;29;20474;-76
2021/11/06 04:42:48;;;;;;;16.02;8.63;;;;;;;7.15;100.00;99046.41;4916909;29;20068;-77
2021/11/06 04:45:13;;;;;;;15.57;8.10;;;;;;;7.15;100.00;99045.59;4916449;29;20060;-77
2021/11/06 04:47:40;;;;;;;12.90;8.65;;;;;;;7.15;100.00;99046.41;4915287;29;20056;-77
2021/11/06 04:50:07;;;;;;;15.68;8.00;;;;;;;7.13;100.00;99043.13;4916318;29;20401;-77
2021/11/06 04:52:35;;;;;;;11.10;7.25;;;;;;;7.12;100.00;99052.34;4916272;29;20032;-77
2021/11/06 04:55:02;;;;;;;15.23;8.00;;;;;;;7.08;100.00;99047.66;4916347;29;20439;-78
2021/11/06 04:57:27;;;;;;;10.57;7.45;;;;;;;7.16;100.00;99058.94;4916328;29;20028;-77
2021/11/06 04:59:53;;;;;;;12.40;8.10;;;;;;;7.14;100.00;99052.91;4917506;29;20156;-77
2021/11/06 05:02:18;;;;;;;12.98;8.23;;;;;;;7.16;100.00;99050.78;4916362;29;20103;-78
2021/11/06 05:04:44;;;;;;;15.93;9.30;;;;;;;7.14;100.00;99061.06;4914641;29;20036;-76
2021/11/06 05:07:09;;;;;;;13.80;8.60;;;;;;;7.13;100.00;99062.16;4925140;29;20433;-77
2021/11/06 05:09:34;;;;;;;16.23;8.57;;;;;;;7.23;100.00;99059.63;4948143;29;20055;-77
2021/11/06 05:12:00;;;;;;;13.23;7.95;;;;;;;7.22;100.00;99057.97;4933803;29;20064;-77
2021/11/06 05:14:25;;;;;;;13.20;7.88;;;;;;;7.17;100.00;99060.63;4933571;29;20531;-77
2021/11/06 05:16:51;;;;;;;12.38;7.50;;;;;;;7.20;100.00;99068.28;4934335;29;20420;-77
2021/11/06 05:19:17;;;;;;;11.93;8.07;;;;;;;7.14;100.00;99069.25;4934530;29;20036;-76
2021/11/06 05:21:44;;;;;;;13.32;9.15;;;;;;;7.11;100.00;99071.66;4934857;29;20082;-77
2021/11/06 05:24:10;;;;;;;14.50;8.70;;;;;;;7.11;100.00;99072.44;4934626;29;20027;-77
2021/11/06 05:26:38;;;;;;;14.00;8.55;;;;;;;7.11;100.00;99079.81;4934576;29;20040;-77
2021/11/06 05:29:06;;;;;;;12.68;7.95;;;;;;;7.10;100.00;99087.16;4932777;29;20032;-77
2021/11/06 05:31:33;;;;;;;15.38;8.15;;;;;;;7.09;100.00;99073.78;4949164;29;20047;-76
2021/11/06 05:34:00;;;;;;;14.85;8.23;;;;;;;7.07;100.00;99079.47;4934261;29;20043;-78
2021/11/06 05:36:27;;;;;;;13.27;8.25;;;;;;;7.08;100.00;99089.25;4934628;29;20081;-75
2021/11/06 05:38:53;;;;;;;15.65;8.88;;;;;;;7.09;100.00;99090.09;4934345;29;20024;-75
2021/11/06 05:41:18;;;;;;;14.63;8.60;;;;;;;7.10;100.00;99091.75;4949637;29;20115;-77
2021/11/06 05:43:44;;;;;;;15.40;7.82;;;;;;;7.17;100.00;99103.31;4934636;29;20489;-77
2021/11/06 05:46:09;;;;;;;13.55;7.72;;;;;;;7.15;100.00;99095.38;4934271;29;20030;-76
2021/11/06 05:48:34;;;;;;;12.32;7.68;;;;;;;7.21;100.00;99102.56;4934351;29;20042;-77
2021/11/06 05:51:01;;;;;;;13.52;8.13;;;;;;;7.23;100.00;99108.59;4934387;29;20397;-77
2021/11/06 05:53:26;;;;;;;13.82;7.95;;;;;;;7.20;100.00;99097.38;4934736;29;20115;-77
2021/11/06 05:55:51;;;;;;;14.77;7.57;;;;;;;7.23;100.00;99119.50;4946234;29;20139;-77
2021/11/06 05:58:17;;;;;;;12.95;7.50;;;;;;;7.20;100.00;99119.97;4940492;29;20450;-77
2021/11/06 06:00:42;;;;;;;12.85;6.60;;;;;;;7.19;100.00;99114.78;4934135;29;20031;-77
2021/11/06 06:03:08;;;;;;;23.90;13.38;;;;;;;7.22;100.00;99122.44;4934214;29;20528;-76
2021/11/06 06:05:33;;;;;;;21.85;14.32;;;;;;;7.31;100.00;99126.41;4927877;29;20060;-77
2021/11/06 06:07:59;;;;;;;12.68;7.95;;;;;;;7.39;100.00;99128.75;4933929;29;20044;-76
2021/11/06 06:10:24;;;;;;;14.98;7.32;;;;;;;7.32;100.00;99128.91;4934671;29;20500;-77
2021/11/06 06:12:52;;;;;;;44.58;27.20;;;;;;;7.39;100.00;99129.53;4948811;29;20051;-75
2021/11/06 06:15:20;;;;;;;17.92;10.07;;;;;;;7.50;100.00;99139.56;4961060;29;20042;-73
2021/11/06 06:17:46;;;;;;;21.30;13.95;;;;;;;7.53;100.00;99144.50;4960839;29;20024;-73
2021/11/06 06:20:12;;;;;;;10.65;7.32;;;;;;;7.50;100.00;99145.00;4959983;29;20035;-74
2021/11/06 06:22:38;;;;;;;22.30;11.75;;;;;;;7.54;100.00;99145.34;4960912;29;20027;-73
2021/11/06 06:25:08;;;;;;;14.23;6.53;;;;;;;7.49;100.00;99156.94;4960817;29;20019;-77
2021/11/06 06:27:34;;;;;;;13.55;7.68;;;;;;;7.52;100.00;99150.19;4960447;29;20008;-75
2021/11/06 06:30:00;;;;;;;12.40;7.82;;;;;;;7.54;100.00;99158.94;4960770;29;20024;-74
2021/11/06 06:32:25;;;;;;;13.20;6.60;;;;;;;7.61;100.00;99158.78;4976009;28;20050;-75
2021/11/06 06:34:51;;;;;;;17.33;11.15;;;;;;;7.59;100.00;99152.75;4950169;29;20122;-78
2021/11/06 06:37:16;;;;;;;80.85;32.17;;;;;;;7.64;100.00;99158.28;4933564;29;20135;-77
2021/11/06 06:39:42;;;;;;;21.05;13.32;;;;;;;7.68;100.00;99162.16;4932044;29;20373;-77
2021/11/06 06:42:07;;;;;;;13.48;8.77;;;;;;;7.64;100.00;99166.47;4933448;29;20478;-77
2021/11/06 06:44:33;;;;;;;11.73;6.18;;;;;;;7.69;100.00;99170.09;4933971;29;20023;-77
2021/11/06 06:46:58;;;;;;;11.88;5.90;;;;;;;7.70;100.00;99173.66;4933395;29;20028;-77
2021/11/06 06:49:24;;;;;;;11.48;5.68;;;;;;;7.69;100.00;99172.81;4933396;29;20032;-77
2021/11/06 06:51:49;;;;;;;11.15;6.70;;;;;;;7.71;100.00;99180.72;4933513;29;20485;-77
2021/11/06 06:54:15;;;;;;;11.77;6.35;;;;;;;7.77;100.00;99174.31;4933327;29;20031;-77
2021/11/06 06:56:40;;;;;;;13.82;6.18;;;;;;;7.83;100.00;99184.22;4933571;29;20034;-77
2021/11/06 06:59:06;;;;;;;13.45;6.28;;;;;;;7.81;100.00;99183.63;4933651;29;20020;-77
2021/11/06 07:01:32;;;;;;;11.55;5.68;;;;;;;7.85;100.00;99179.34;4933368;29;20028;-77
2021/11/06 07:03:57;;;;;;;10.98;6.90;;;;;;;7.87;100.00;99183.47;4933997;29;20035;-77
2021/11/06 07:06:23;;;;;;;14.65;7.88;;;;;;;7.79;99.65;99172.16;4929759;29;20095;-78
2021/11/06 07:08:48;;;;;;;17.50;9.10;;;;;;;7.89;100.00;99188.69;4914501;29;20108;-77
2021/11/06 07:11:14;;;;;;;15.80;7.80;;;;;;;7.93;100.00;99187.09;4916758;29;20026;-76
2021/11/06 07:13:39;;;;;;;13.20;7.45;;;;;;;8.08;98.25;99198.25;4918631;29;20469;-77
2021/11/06 07:16:06;;;;;;;11.65;6.70;;;;;;;8.06;97.80;99187.59;4916807;29;20540;-77
2021/11/06 07:18:31;;;;;;;10.05;6.25;;;;;;;8.07;96.80;99196.59;4918457;29;20079;-77
2021/11/06 07:20:57;;;;;;;12.15;5.78;;;;;;;8.23;98.20;99201.22;4919498;29;20024;-77
2021/11/06 07:23:22;;;;;;;12.45;6.45;;;;;;;8.44;96.90;99205.09;4916668;29;20367;-77
2021/11/06 07:25:48;;;;;;;12.05;6.28;;;;;;;8.55;94.95;99204.16;4916705;29;20028;-77
2021/11/06 07:28:13;;;;;;;12.27;6.07;;;;;;;8.68;94.92;99213.91;4917788;29;20024;-76
2021/11/06 07:30:40;;;;;;;9.73;6.00;;;;;;;8.71;93.86;99205.22;4916010;29;20028;-77
2021/11/06 07:33:05;;;;;;;12.45;6.80;;;;;;;8.80;94.11;99211.88;4917756;29;20028;-76
2021/11/06 07:35:30;;;;;;;14.25;6.60;;;;;;;8.87;93.02;99212.50;4917686;29;20028;-76
2021/11/06 07:37:56;;;;;;;11.48;6.60;;;;;;;8.97;91.41;99212.63;4916509;29;20075;-77
2021/11/06 07:40:22;;;;;;;10.70;5.70;;;;;;;8.98;92.19;99208.81;4917687;29;20028;-77
2021/11/06 07:42:48;;;;;;;11.38;6.82;;;;;;;8.93;91.68;99217.75;4917777;29;20509;-77
2021/11/06 07:45:16;;;;;;;9.52;6.03;;;;;;;9.01;90.46;99220.06;4917467;29;20072;-76
2021/11/06 07:47:41;;;;;;;9.40;5.65;;;;;;;9.05;90.88;99220.38;4917411;29;20083;-77
2021/11/06 07:50:08;;;;;;;10.38;6.10;;;;;;;9.10;90.78;99217.72;4917413;29;20040;-78
2021/11/06 07:52:34;;;;;;;10.80;5.93;;;;;;;9.09;92.02;99216.88;4921035;29;20032;-78
2021/11/06 07:54:59;;;;;;;11.35;5.75;;;;;;;8.99;91.74;99183.19;4927104;29;20579;-77
2021/11/06 07:57:25;;;;;;;11.70;6.03;;;;;;;9.31;88.91;99207.84;4925054;29;20024;-77
2021/11/06 07:59:50;;;;;;;11.20;6.20;;;;;;;9.04;89.71;99218.72;4925400;29;20024;-76
2021/11/06 08:02:16;;;;;;;8.05;5.40;;;;;;;9.13;91.03;99207.09;4929538;29;20030;-77
2021/11/06 08:04:41;;;;;;;11.20;6.30;;;;;;;9.32;91.08;99225.88;4927173;29;20036;-77
2021/11/06 08:07:07;;;;;;;12.60;7.57;;;;;;;9.23;90.17;99214.59;4925978;29;20039;-77
2021/11/06 08:09:32;;;;;;;11.27;5.90;;;;;;;9.58;89.23;99228.66;4929200;29;20498;-76
2021/11/06 08:11:58;;;;;;;10.75;5.68;;;;;;;9.68;90.00;99217.78;4925959;29;20048;-77
2021/11/06 08:14:24;;;;;;;10.07;6.35;;;;;;;10.06;88.41;99224.16;4927411;29;20030;-80
2021/11/06 08:16:55;;;;;;;9.70;6.32;;;;;;;10.53;85.67;99227.81;4937990;29;20020;-80
2021/11/06 08:19:21;;;;;;;10.68;5.72;;;;;;;10.41;85.10;99221.72;4926592;29;20032;-78
2021/11/06 08:21:47;;;;;;;15.43;8.30;;;;;;;10.61;83.31;99224.63;4928509;29;20604;-78
2021/11/06 08:24:12;;;;;;;23.88;13.55;;;;;;;10.45;83.34;99225.59;4927488;29;20111;-78
2021/11/06 08:26:38;;;;;;;13.70;7.68;;;;;;;9.97;85.66;99233.91;4925819;29;20079;-77
2021/11/06 08:29:03;;;;;;;11.27;7.13;;;;;;;9.98;86.01;99222.72;4929178;29;20059;-77
2021/11/06 08:31:31;;;;;;;12.38;7.20;;;;;;;9.97;87.13;99220.25;4927114;29;20043;-77
2021/11/06 08:33:57;;;;;;;12.93;7.38;;;;;;;9.78;87.53;99235.38;4926209;29;20081;-77
2021/11/06 08:36:22;;;;;;;11.57;6.88;;;;;;;9.95;87.29;99228.72;4924701;29;20477;-78
2021/11/06 08:38:48;;;;;;;15.93;8.60;;;;;;;9.90;88.34;99219.66;4924901;29;20039;-78
2021/11/06 08:41:13;;;;;;;12.07;7.30;;;;;;;10.08;86.88;99227.47;4925512;29;20027;-78
2021/11/06 08:43:39;;;;;;;11.15;7.43;;;;;;;9.98;87.70;99224.63;4922869;29;20032;-78
2021/11/06 08:46:05;;;;;;;10.52;7.10;;;;;;;9.84;87.36;99220.66;4932303;29;20079;-76
2021/11/06 08:48:30;;;;;;;15.15;8.32;;;;;;;9.85;86.58;99217.69;4926122;29;20650;-76
2021/11/06 08:50:56;;;;;;;10.95;7.25;;;;;;;9.91;88.64;99224.03;4942387;29;20028;-72
2021/11/06 08:53:21;;;;;;;12.27;7.32;;;;;;;10.10;87.61;99214.34;4960103;29;20055;-71
2021/11/06 08:55:47;;;;;;;10.32;6.95;;;;;;;9.98;86.51;99219.16;4962507;29;20016;-72
2021/11/06 08:58:12;;;;;;;12.93;6.82;;;;;;;10.32;85.39;99225.22;4961875;29;20016;-72
2021/11/06 09:00:42;;;;;;;9.45;6.30;;;;;;;10.40;81.41;99225.53;4962324;29;20019;-71
2021/11/06 09:03:12;;;;;;;14.40;6.95;;;;;;;10.21;82.26;99225.13;4959194;29;20023;-78
2021/11/06 09:05:38;;;;;;;14.43;7.63;;;;;;;9.99;81.79;99232.56;4931229;29;20058;-78
2021/11/06 09:08:04;;;;;;;19.98;9.75;;;;;;;9.98;82.72;99227.38;4943038;29;20047;-80
2021/11/06 09:10:29;;;;;;;11.93;6.82;;;;;;;10.07;81.98;99223.91;4942542;29;20032;-77
2021/11/06 09:12:56;;;;;;;11.68;6.88;;;;;;;10.00;80.23;99233.38;4938929;29;20042;-74
2021/11/06 09:15:22;;;;;;;10.68;6.80;;;;;;;9.97;79.72;99229.28;4940066;29;20031;-77
2021/11/06 09:17:49;;;;;;;13.00;6.55;;;;;;;9.94;77.17;99223.50;4933181;29;20047;-76
2021/11/06 09:20:15;;;;;;;11.65;6.43;;;;;;;9.83;76.84;99210.84;4941356;29;20114;-78
2021/11/06 09:22:40;;;;;;;14.55;7.70;;;;;;;9.77;76.82;99223.63;4946191;29;20055;-77
2021/11/06 09:25:08;;;;;;;9.65;5.40;;;;;;;9.96;75.46;99224.09;4956131;29;20043;-77
2021/11/06 09:27:34;;;;;;;10.65;6.18;;;;;;;10.04;74.88;99229.06;4958464;29;20008;-80
2021/11/06 09:29:59;;;;;;;7.95;4.35;;;;;;;9.92;73.58;99226.50;4954042;29;20130;-80
2021/11/06 09:32:25;;;;;;;8.35;4.85;;;;;;;10.07;73.32;99225.81;4948491;29;20018;-78
2021/11/06 09:34:50;;;;;;;7.57;4.55;;;;;;;10.34;72.80;99220.31;4954314;29;20039;-79
2021/11/06 09:37:16;;;;;;;9.27;4.25;;;;;;;10.09;71.84;99226.34;4948383;29;20039;-79
2021/11/06 09:39:42;;;;;;;6.22;3.42;;;;;;;10.08;71.30;99213.78;4950274;29;20035;-74
2021/11/06 09:42:08;;;;;;;8.15;3.95;;;;;;;10.12;71.03;99210.25;4926236;29;20043;-78
2021/11/06 09:44:37;;;;;;;6.07;3.58;;;;;;;10.22;70.71;99215.00;4931197;29;20035;-77
2021/11/06 09:47:08;;;;;;;6.53;3.67;;;;;;;10.30;71.54;99211.81;4932041;29;20039;-77
2021/11/06 09:49:34;;;;;;;6.22;3.80;;;;;;;10.27;70.78;99206.03;4928553;29;20050;-78
2021/11/06 09:51:59;;;;;;;5.47;3.35;;;;;;;10.36;71.16;99216.22;4927700;29;20035;-76
2021/11/06 09:54:25;;;;;;;6.93;3.60;;;;;;;10.32;69.91;99209.63;4926970;29;20028;-76
2021/11/06 09:56:50;;;;;;;6.45;3.83;;;;;;;10.23;70.14;99207.66;4926881;29;20063;-76
2021/11/06 09:59:16;;;;;;;8.80;3.65;;;;;;;10.31;70.40;99209.88;4926834;29;20151;-76
2021/11/06 10:01:41;;;;;;;7.80;3.33;;;;;;;10.46;70.55;99196.34;4925952;29;20036;-75
2021/11/06 10:04:07;;;;;;;6.95;3.67;;;;;;;10.53;69.13;99189.53;4925667;29;20040;-76
2021/11/06 10:06:36;;;;;;;5.47;3.25;;;;;;;10.57;69.25;99195.28;4925971;29;20034;-75
2021/11/06 10:09:08;;;;;;;5.18;3.50;;;;;;;10.89;68.73;99187.81;4927705;29;20105;-76
2021/11/06 10:11:34;;;;;;;9.27;4.53;;;;;;;11.01;67.57;99195.78;4925332;29;20371;-77
2021/11/06 10:14:08;;;;;;;5.13;3.45;;;;;;;11.04;66.16;99190.59;4925081;29;20063;-75
2021/11/06 10:16:40;;;;;;;5.35;3.30;;;;;;;11.23;65.74;99196.44;4927788;29;20048;-76
2021/11/06 10:19:14;;;;;;;6.97;3.50;;;;;;;11.21;65.62;99193.94;4927302;29;20046;-77
2021/11/06 10:21:43;;;;;;;5.47;3.20;;;;;;;11.23;64.60;99194.50;4929161;29;20493;-75
2021/11/06 10:24:09;;;;;;;6.35;3.45;;;;;;;11.32;66.35;99183.03;4924402;29;20031;-75
2021/11/06 10:26:34;;;;;;;5.80;3.28;;;;;;;11.19;65.23;99185.19;4924559;29;20994;-75
2021/11/06 10:29:03;;;;;;;8.32;3.88;;;;;;;11.19;66.08;99181.63;4924639;29;20046;-76
2021/11/06 10:31:28;;;;;;;7.05;3.67;;;;;;;11.09;66.00;99182.41;4940848;29;20030;-77
2021/11/06 10:33:54;;;;;;;6.82;3.33;;;;;;;11.04;65.13;99173.34;4926741;29;20035;-76
2021/11/06 10:36:25;;;;;;;6.25;3.67;;;;;;;10.99;66.22;99170.59;4928717;29;20028;-77
2021/11/06 10:39:11;;;;;;;7.30;3.28;;;;;;;11.09;65.82;99165.16;4927121;29;20028;-77
2021/11/06 10:41:41;;;;;;;5.97;3.38;;;;;;;10.98;65.50;99166.22;4926723;29;20039;-76
2021/11/06 10:44:07;;;;;;;5.40;3.42;;;;;;;10.75;64.48;99148.31;4928074;29;20396;-75
2021/11/06 10:46:33;;;;;;;6.75;3.00;;;;;;;10.74;64.33;99147.50;4930425;29;20031;-76
2021/11/06 10:49:00;;;;;;;7.93;3.10;;;;;;;10.70;65.08;99146.41;4926610;29;20043;-77
2021/11/06 10:51:25;;;;;;;4.20;2.50;;;;;;;10.56;63.40;99139.75;4928164;29;20039;-79
2021/11/06 10:54:00;;;;;;;6.90;3.20;;;;;;;10.77;63.58;99131.66;4926427;29;20400;-77
2021/11/06 10:56:34;;;;;;;4.87;2.87;;;;;;;10.72;62.84;99138.72;4928459;29;20035;-76
2021/11/06 10:59:22;;;;;;;7.72;2.83;;;;;;;10.81;62.01;99133.56;4928789;29;20274;-76
2021/11/06 11:01:53;;;;;;;4.53;2.25;;;;;;;10.81;61.79;99138.25;4929237;29;20579;-77
2021/11/06 11:04:20;;;;;;;5.05;2.70;;;;;;;10.64;61.89;99125.56;4928431;29;20493;-77
2021/11/06 11:06:59;;;;;;;4.03;2.53;;;;;;;10.57;62.92;99129.63;4927671;29;20023;-78
2021/11/06 11:09:33;;;;;;;5.97;3.20;;;;;;;10.54;62.57;99120.06;4929674;29;20043;-78
2021/11/06 11:12:00;;;;;;;5.78;3.20;;;;;;;10.38;63.28;99104.66;4930247;29;20070;-79
2021/11/06 11:14:29;;;;;;;5.88;2.90;;;;;;;10.43;63.02;99099.19;4932041;29;20044;-78
2021/11/06 11:16:55;;;;;;;6.60;3.45;;;;;;;10.54;61.88;99106.38;4932241;29;20043;-77
2021/11/06 11:19:36;;;;;;;6.78;2.97;;;;;;;10.50;61.27;99107.16;4928912;29;20027;-78